sensor_id;sensor_type;location;lat;lon;timestamp;P1;durP1;ratioP1;P2;durP2;ratioP2
36799;SDS011;22752;51.960;5.886;2022-12-11T00:01:33;131.23;;;37.00;;
36799;SDS011;22752;51.960;5.886;2022-12-11T00:03:59;123.67;;;36.77;;
36799;SDS011;22752;51.960;5.886;2022-12-11T00:06:24;126.27;;;36.70;;
36799;SDS011;22752;51.960;5.886;2022-12-11T00:08:50;149.10;;;38.30;;
36799;SDS011;22752;51.960;5.886;2022-12-11T00:11:18;124.00;;;35.60;;
36799;SDS011;22752;51.960;5.886;2022-12-11T00:13:45;110.57;;;34.47;;
36799;SDS011;22752;51.960;5.886;2022-12-11T00:16:11;125.33;;;37.43;;
36799;SDS011;22752;51.960;5.886;2022-12-11T00:18:37;128.63;;;35.33;;
36799;SDS011;22752;51.960;5.886;2022-12-11T00:21:03;124.07;;;36.70;;
36799;SDS011;22752;51.960;5.886;2022-12-11T00:23:30;119.03;;;35.13;;
36799;SDS011;22752;51.960;5.886;2022-12-11T00:25:56;129.53;;;37.50;;
36799;SDS011;22752;51.960;5.886;2022-12-11T00:28:22;126.80;;;36.83;;
36799;SDS011;22752;51.960;5.886;2022-12-11T00:30:49;122.30;;;35.17;;
36799;SDS011;22752;51.960;5.886;2022-12-11T00:33:14;127.60;;;34.40;;
36799;SDS011;22752;51.960;5.886;2022-12-11T00:35:42;101.70;;;32.73;;
36799;SDS011;22752;51.960;5.886;2022-12-11T00:38:12;128.67;;;37.30;;
36799;SDS011;22752;51.960;5.886;2022-12-11T00:40:40;108.17;;;34.07;;
36799;SDS011;22752;51.960;5.886;2022-12-11T00:43:06;102.37;;;32.77;;
36799;SDS011;22752;51.960;5.886;2022-12-11T00:45:34;107.87;;;34.10;;
36799;SDS011;22752;51.960;5.886;2022-12-11T00:48:01;99.47;;;30.50;;
36799;SDS011;22752;51.960;5.886;2022-12-11T00:50:27;94.30;;;31.30;;
36799;SDS011;22752;51.960;5.886;2022-12-11T00:52:52;98.60;;;31.97;;
36799;SDS011;22752;51.960;5.886;2022-12-11T00:55:18;121.97;;;36.40;;
36799;SDS011;22752;51.960;5.886;2022-12-11T00:57:43;115.77;;;33.77;;
36799;SDS011;22752;51.960;5.886;2022-12-11T01:00:09;104.83;;;33.23;;
36799;SDS011;22752;51.960;5.886;2022-12-11T01:02:36;98.57;;;32.30;;
36799;SDS011;22752;51.960;5.886;2022-12-11T01:05:02;96.37;;;31.33;;
36799;SDS011;22752;51.960;5.886;2022-12-11T01:07:28;97.83;;;32.00;;
36799;SDS011;22752;51.960;5.886;2022-12-11T01:09:53;109.47;;;32.70;;
36799;SDS011;22752;51.960;5.886;2022-12-11T01:13:09;108.03;;;34.23;;
36799;SDS011;22752;51.960;5.886;2022-12-11T01:15:39;116.40;;;35.07;;
36799;SDS011;22752;51.960;5.886;2022-12-11T01:18:08;95.77;;;31.50;;
36799;SDS011;22752;51.960;5.886;2022-12-11T01:20:36;110.57;;;34.73;;
36799;SDS011;22752;51.960;5.886;2022-12-11T01:23:03;116.67;;;34.93;;
36799;SDS011;22752;51.960;5.886;2022-12-11T01:25:28;102.17;;;33.03;;
36799;SDS011;22752;51.960;5.886;2022-12-11T01:27:54;104.97;;;33.03;;
36799;SDS011;22752;51.960;5.886;2022-12-11T01:30:20;121.07;;;35.03;;
36799;SDS011;22752;51.960;5.886;2022-12-11T01:32:48;135.27;;;37.07;;
36799;SDS011;22752;51.960;5.886;2022-12-11T01:35:14;113.27;;;35.13;;
36799;SDS011;22752;51.960;5.886;2022-12-11T01:37:40;126.20;;;35.43;;
36799;SDS011;22752;51.960;5.886;2022-12-11T01:40:06;105.57;;;34.57;;
36799;SDS011;22752;51.960;5.886;2022-12-11T01:42:32;119.00;;;34.60;;
36799;SDS011;22752;51.960;5.886;2022-12-11T01:47:39;130.20;;;35.80;;
36799;SDS011;22752;51.960;5.886;2022-12-11T01:50:05;128.90;;;36.03;;
36799;SDS011;22752;51.960;5.886;2022-12-11T01:52:31;113.60;;;35.30;;
36799;SDS011;22752;51.960;5.886;2022-12-11T01:54:57;110.17;;;34.30;;
36799;SDS011;22752;51.960;5.886;2022-12-11T01:57:23;104.13;;;32.07;;
36799;SDS011;22752;51.960;5.886;2022-12-11T01:59:49;113.30;;;35.40;;
36799;SDS011;22752;51.960;5.886;2022-12-11T02:02:19;114.97;;;33.87;;
36799;SDS011;22752;51.960;5.886;2022-12-11T02:04:47;126.33;;;35.73;;
36799;SDS011;22752;51.960;5.886;2022-12-11T02:07:13;104.40;;;32.17;;
36799;SDS011;22752;51.960;5.886;2022-12-11T02:09:40;123.63;;;34.90;;
36799;SDS011;22752;51.960;5.886;2022-12-11T02:17:47;156.50;;;38.13;;
36799;SDS011;22752;51.960;5.886;2022-12-11T02:31:14;125.87;;;35.57;;
36799;SDS011;22752;51.960;5.886;2022-12-11T02:34:12;153.10;;;37.57;;
36799;SDS011;22752;51.960;5.886;2022-12-11T02:39:34;177.90;;;39.53;;
36799;SDS011;22752;51.960;5.886;2022-12-11T02:42:02;138.73;;;36.60;;
36799;SDS011;22752;51.960;5.886;2022-12-11T02:44:29;171.60;;;39.37;;
36799;SDS011;22752;51.960;5.886;2022-12-11T02:46:58;197.17;;;40.57;;
36799;SDS011;22752;51.960;5.886;2022-12-11T02:49:24;182.97;;;40.10;;
36799;SDS011;22752;51.960;5.886;2022-12-11T02:51:50;186.53;;;40.77;;
36799;SDS011;22752;51.960;5.886;2022-12-11T02:54:20;191.47;;;40.57;;
36799;SDS011;22752;51.960;5.886;2022-12-11T02:56:56;123.13;;;35.93;;
36799;SDS011;22752;51.960;5.886;2022-12-11T02:59:36;151.13;;;38.40;;
36799;SDS011;22752;51.960;5.886;2022-12-11T03:02:04;135.70;;;37.20;;
36799;SDS011;22752;51.960;5.886;2022-12-11T03:04:31;151.00;;;38.07;;
36799;SDS011;22752;51.960;5.886;2022-12-11T03:07:01;145.27;;;37.23;;
36799;SDS011;22752;51.960;5.886;2022-12-11T03:09:36;134.37;;;36.53;;
36799;SDS011;22752;51.960;5.886;2022-12-11T03:12:04;169.43;;;38.07;;
36799;SDS011;22752;51.960;5.886;2022-12-11T03:14:31;143.23;;;37.63;;
36799;SDS011;22752;51.960;5.886;2022-12-11T03:17:04;147.43;;;38.40;;
36799;SDS011;22752;51.960;5.886;2022-12-11T03:19:46;151.07;;;38.77;;
36799;SDS011;22752;51.960;5.886;2022-12-11T03:22:22;120.35;;;35.05;;
36799;SDS011;22752;51.960;5.886;2022-12-11T03:25:02;139.90;;;36.17;;
36799;SDS011;22752;51.960;5.886;2022-12-11T03:27:37;146.90;;;38.87;;
36799;SDS011;22752;51.960;5.886;2022-12-11T03:30:22;149.20;;;37.87;;
36799;SDS011;22752;51.960;5.886;2022-12-11T03:32:54;143.37;;;38.47;;
36799;SDS011;22752;51.960;5.886;2022-12-11T03:35:35;125.43;;;37.53;;
36799;SDS011;22752;51.960;5.886;2022-12-11T03:38:06;133.80;;;38.37;;
36799;SDS011;22752;51.960;5.886;2022-12-11T03:40:35;135.60;;;37.53;;
36799;SDS011;22752;51.960;5.886;2022-12-11T03:43:04;132.23;;;35.20;;
36799;SDS011;22752;51.960;5.886;2022-12-11T03:45:31;132.53;;;36.27;;
36799;SDS011;22752;51.960;5.886;2022-12-11T03:47:58;125.47;;;37.23;;
36799;SDS011;22752;51.960;5.886;2022-12-11T03:50:26;138.03;;;40.00;;
36799;SDS011;22752;51.960;5.886;2022-12-11T03:52:54;137.07;;;39.90;;
36799;SDS011;22752;51.960;5.886;2022-12-11T03:55:21;136.13;;;37.50;;
36799;SDS011;22752;51.960;5.886;2022-12-11T03:57:48;125.77;;;37.93;;
36799;SDS011;22752;51.960;5.886;2022-12-11T04:00:15;131.30;;;36.80;;
36799;SDS011;22752;51.960;5.886;2022-12-11T04:02:43;133.23;;;36.13;;
36799;SDS011;22752;51.960;5.886;2022-12-11T04:05:29;120.30;;;37.50;;
36799;SDS011;22752;51.960;5.886;2022-12-11T04:07:55;129.60;;;38.40;;
36799;SDS011;22752;51.960;5.886;2022-12-11T04:10:20;137.07;;;38.30;;
36799;SDS011;22752;51.960;5.886;2022-12-11T04:12:46;131.73;;;38.40;;
36799;SDS011;22752;51.960;5.886;2022-12-11T04:15:11;117.23;;;36.07;;
36799;SDS011;22752;51.960;5.886;2022-12-11T04:17:37;130.93;;;38.20;;
36799;SDS011;22752;51.960;5.886;2022-12-11T04:20:21;121.27;;;38.80;;
36799;SDS011;22752;51.960;5.886;2022-12-11T04:23:05;125.20;;;37.97;;
36799;SDS011;22752;51.960;5.886;2022-12-11T04:25:54;120.87;;;38.13;;
36799;SDS011;22752;51.960;5.886;2022-12-11T04:28:31;115.77;;;39.07;;
36799;SDS011;22752;51.960;5.886;2022-12-11T04:30:57;131.30;;;40.83;;
36799;SDS011;22752;51.960;5.886;2022-12-11T04:33:22;121.43;;;38.27;;
36799;SDS011;22752;51.960;5.886;2022-12-11T04:35:48;131.27;;;40.20;;
36799;SDS011;22752;51.960;5.886;2022-12-11T04:38:13;124.17;;;40.03;;
36799;SDS011;22752;51.960;5.886;2022-12-11T04:40:39;112.53;;;38.53;;
36799;SDS011;22752;51.960;5.886;2022-12-11T04:43:04;110.67;;;38.40;;
36799;SDS011;22752;51.960;5.886;2022-12-11T04:45:30;103.23;;;36.67;;
36799;SDS011;22752;51.960;5.886;2022-12-11T04:47:56;102.97;;;37.10;;
36799;SDS011;22752;51.960;5.886;2022-12-11T04:50:21;106.53;;;37.43;;
36799;SDS011;22752;51.960;5.886;2022-12-11T04:52:47;110.40;;;39.60;;
36799;SDS011;22752;51.960;5.886;2022-12-11T04:55:13;97.50;;;36.73;;
36799;SDS011;22752;51.960;5.886;2022-12-11T04:57:38;102.57;;;37.80;;
36799;SDS011;22752;51.960;5.886;2022-12-11T05:00:05;126.50;;;39.33;;
36799;SDS011;22752;51.960;5.886;2022-12-11T05:02:33;112.90;;;37.27;;
36799;SDS011;22752;51.960;5.886;2022-12-11T05:05:03;124.77;;;44.20;;
36799;SDS011;22752;51.960;5.886;2022-12-11T05:07:30;114.33;;;42.13;;
36799;SDS011;22752;51.960;5.886;2022-12-11T05:09:56;94.90;;;38.27;;
36799;SDS011;22752;51.960;5.886;2022-12-11T05:12:22;94.73;;;37.57;;
36799;SDS011;22752;51.960;5.886;2022-12-11T05:14:50;90.70;;;36.87;;
36799;SDS011;22752;51.960;5.886;2022-12-11T05:17:17;92.50;;;39.60;;
36799;SDS011;22752;51.960;5.886;2022-12-11T05:19:43;81.73;;;36.70;;
36799;SDS011;22752;51.960;5.886;2022-12-11T05:22:08;96.77;;;39.63;;
36799;SDS011;22752;51.960;5.886;2022-12-11T05:24:34;114.57;;;43.80;;
36799;SDS011;22752;51.960;5.886;2022-12-11T05:26:59;101.40;;;40.57;;
36799;SDS011;22752;51.960;5.886;2022-12-11T05:29:25;84.13;;;36.37;;
36799;SDS011;22752;51.960;5.886;2022-12-11T05:31:51;86.90;;;36.70;;
36799;SDS011;22752;51.960;5.886;2022-12-11T05:34:16;96.90;;;37.93;;
36799;SDS011;22752;51.960;5.886;2022-12-11T05:36:42;92.93;;;39.43;;
36799;SDS011;22752;51.960;5.886;2022-12-11T05:39:07;88.07;;;37.47;;
36799;SDS011;22752;51.960;5.886;2022-12-11T05:41:35;95.60;;;38.47;;
36799;SDS011;22752;51.960;5.886;2022-12-11T05:44:01;94.37;;;35.73;;
36799;SDS011;22752;51.960;5.886;2022-12-11T05:46:27;105.13;;;39.33;;
36799;SDS011;22752;51.960;5.886;2022-12-11T05:48:55;86.10;;;37.93;;
36799;SDS011;22752;51.960;5.886;2022-12-11T05:51:22;88.60;;;37.03;;
36799;SDS011;22752;51.960;5.886;2022-12-11T05:53:49;84.23;;;36.07;;
36799;SDS011;22752;51.960;5.886;2022-12-11T05:56:17;80.03;;;35.13;;
36799;SDS011;22752;51.960;5.886;2022-12-11T05:58:45;92.97;;;36.73;;
36799;SDS011;22752;51.960;5.886;2022-12-11T06:01:13;86.77;;;35.27;;
36799;SDS011;22752;51.960;5.886;2022-12-11T06:03:44;77.28;;;33.75;;
36799;SDS011;22752;51.960;5.886;2022-12-11T06:06:10;84.80;;;37.23;;
36799;SDS011;22752;51.960;5.886;2022-12-11T06:08:36;99.00;;;39.90;;
36799;SDS011;22752;51.960;5.886;2022-12-11T06:11:01;86.67;;;38.90;;
36799;SDS011;22752;51.960;5.886;2022-12-11T06:13:27;80.20;;;37.63;;
36799;SDS011;22752;51.960;5.886;2022-12-11T06:15:53;71.57;;;36.07;;
36799;SDS011;22752;51.960;5.886;2022-12-11T06:18:19;73.20;;;36.53;;
36799;SDS011;22752;51.960;5.886;2022-12-11T06:20:45;73.83;;;35.23;;
36799;SDS011;22752;51.960;5.886;2022-12-11T06:23:10;73.93;;;35.17;;
36799;SDS011;22752;51.960;5.886;2022-12-11T06:25:39;76.93;;;36.40;;
36799;SDS011;22752;51.960;5.886;2022-12-11T06:28:05;69.40;;;34.13;;
36799;SDS011;22752;51.960;5.886;2022-12-11T06:30:30;70.93;;;34.23;;
36799;SDS011;22752;51.960;5.886;2022-12-11T06:32:57;72.90;;;34.00;;
36799;SDS011;22752;51.960;5.886;2022-12-11T06:35:22;61.50;;;32.33;;
36799;SDS011;22752;51.960;5.886;2022-12-11T06:37:48;61.13;;;31.00;;
36799;SDS011;22752;51.960;5.886;2022-12-11T06:40:14;61.30;;;31.77;;
36799;SDS011;22752;51.960;5.886;2022-12-11T06:42:40;60.50;;;33.10;;
36799;SDS011;22752;51.960;5.886;2022-12-11T06:45:06;57.70;;;31.37;;
36799;SDS011;22752;51.960;5.886;2022-12-11T06:47:32;62.10;;;31.67;;
36799;SDS011;22752;51.960;5.886;2022-12-11T06:49:57;56.43;;;31.17;;
36799;SDS011;22752;51.960;5.886;2022-12-11T06:52:24;54.67;;;31.53;;
36799;SDS011;22752;51.960;5.886;2022-12-11T06:54:51;56.53;;;29.37;;
36799;SDS011;22752;51.960;5.886;2022-12-11T06:57:17;56.33;;;30.30;;
36799;SDS011;22752;51.960;5.886;2022-12-11T06:59:43;56.17;;;31.33;;
36799;SDS011;22752;51.960;5.886;2022-12-11T07:02:12;55.03;;;31.70;;
36799;SDS011;22752;51.960;5.886;2022-12-11T07:04:39;49.03;;;30.00;;
36799;SDS011;22752;51.960;5.886;2022-12-11T07:07:06;62.00;;;32.57;;
36799;SDS011;22752;51.960;5.886;2022-12-11T07:09:32;60.53;;;33.57;;
36799;SDS011;22752;51.960;5.886;2022-12-11T07:11:58;50.43;;;28.73;;
36799;SDS011;22752;51.960;5.886;2022-12-11T07:14:23;57.63;;;30.40;;
36799;SDS011;22752;51.960;5.886;2022-12-11T07:16:49;53.80;;;29.57;;
36799;SDS011;22752;51.960;5.886;2022-12-11T07:19:15;50.20;;;28.40;;
36799;SDS011;22752;51.960;5.886;2022-12-11T07:21:41;52.67;;;28.13;;
36799;SDS011;22752;51.960;5.886;2022-12-11T07:24:07;51.43;;;27.43;;
36799;SDS011;22752;51.960;5.886;2022-12-11T07:26:32;47.37;;;26.67;;
36799;SDS011;22752;51.960;5.886;2022-12-11T07:28:59;49.03;;;27.20;;
36799;SDS011;22752;51.960;5.886;2022-12-11T07:31:25;45.60;;;27.43;;
36799;SDS011;22752;51.960;5.886;2022-12-11T07:33:53;46.63;;;26.83;;
36799;SDS011;22752;51.960;5.886;2022-12-11T07:36:20;48.27;;;27.73;;
36799;SDS011;22752;51.960;5.886;2022-12-11T07:38:46;47.00;;;26.67;;
36799;SDS011;22752;51.960;5.886;2022-12-11T07:41:13;47.07;;;28.23;;
36799;SDS011;22752;51.960;5.886;2022-12-11T07:43:39;41.73;;;25.87;;
36799;SDS011;22752;51.960;5.886;2022-12-11T07:46:06;44.03;;;25.47;;
36799;SDS011;22752;51.960;5.886;2022-12-11T07:48:35;44.30;;;27.30;;
36799;SDS011;22752;51.960;5.886;2022-12-11T07:53:42;43.13;;;26.57;;
36799;SDS011;22752;51.960;5.886;2022-12-11T07:56:08;43.47;;;25.63;;
36799;SDS011;22752;51.960;5.886;2022-12-11T07:58:34;38.90;;;24.20;;
36799;SDS011;22752;51.960;5.886;2022-12-11T08:01:00;40.80;;;23.97;;
36799;SDS011;22752;51.960;5.886;2022-12-11T08:03:26;39.30;;;23.00;;
36799;SDS011;22752;51.960;5.886;2022-12-11T08:05:52;34.93;;;21.50;;
36799;SDS011;22752;51.960;5.886;2022-12-11T08:08:18;35.53;;;22.03;;
36799;SDS011;22752;51.960;5.886;2022-12-11T08:10:44;36.07;;;22.13;;
36799;SDS011;22752;51.960;5.886;2022-12-11T08:13:10;34.70;;;22.27;;
36799;SDS011;22752;51.960;5.886;2022-12-11T08:15:36;32.50;;;20.83;;
36799;SDS011;22752;51.960;5.886;2022-12-11T08:18:02;37.63;;;23.10;;
36799;SDS011;22752;51.960;5.886;2022-12-11T08:20:28;32.70;;;21.23;;
36799;SDS011;22752;51.960;5.886;2022-12-11T08:22:55;37.50;;;23.57;;
36799;SDS011;22752;51.960;5.886;2022-12-11T08:25:21;34.07;;;20.40;;
36799;SDS011;22752;51.960;5.886;2022-12-11T08:27:47;36.97;;;22.17;;
36799;SDS011;22752;51.960;5.886;2022-12-11T08:30:12;31.17;;;20.23;;
36799;SDS011;22752;51.960;5.886;2022-12-11T08:32:38;34.57;;;21.20;;
36799;SDS011;22752;51.960;5.886;2022-12-11T08:35:04;37.30;;;22.60;;
36799;SDS011;22752;51.960;5.886;2022-12-11T08:37:30;33.10;;;21.77;;
36799;SDS011;22752;51.960;5.886;2022-12-11T08:39:55;36.87;;;21.40;;
36799;SDS011;22752;51.960;5.886;2022-12-11T08:42:21;33.87;;;21.50;;
36799;SDS011;22752;51.960;5.886;2022-12-11T08:44:46;37.63;;;23.17;;
36799;SDS011;22752;51.960;5.886;2022-12-11T08:47:12;35.83;;;22.07;;
36799;SDS011;22752;51.960;5.886;2022-12-11T08:49:39;37.30;;;23.23;;
36799;SDS011;22752;51.960;5.886;2022-12-11T08:52:05;36.03;;;22.33;;
36799;SDS011;22752;51.960;5.886;2022-12-11T08:54:31;34.57;;;21.33;;
36799;SDS011;22752;51.960;5.886;2022-12-11T08:56:56;33.77;;;21.30;;
36799;SDS011;22752;51.960;5.886;2022-12-11T08:59:22;37.37;;;22.77;;
36799;SDS011;22752;51.960;5.886;2022-12-11T09:01:49;33.33;;;21.53;;
36799;SDS011;22752;51.960;5.886;2022-12-11T09:04:15;34.13;;;20.50;;
36799;SDS011;22752;51.960;5.886;2022-12-11T09:06:40;36.33;;;21.07;;
36799;SDS011;22752;51.960;5.886;2022-12-11T09:09:06;37.43;;;22.50;;
36799;SDS011;22752;51.960;5.886;2022-12-11T09:11:33;35.60;;;22.60;;
36799;SDS011;22752;51.960;5.886;2022-12-11T09:14:00;35.40;;;22.03;;
36799;SDS011;22752;51.960;5.886;2022-12-11T09:16:26;32.77;;;21.67;;
36799;SDS011;22752;51.960;5.886;2022-12-11T09:18:54;33.57;;;21.07;;
36799;SDS011;22752;51.960;5.886;2022-12-11T09:21:22;32.90;;;21.40;;
36799;SDS011;22752;51.960;5.886;2022-12-11T09:23:54;36.87;;;22.43;;
36799;SDS011;22752;51.960;5.886;2022-12-11T09:26:21;33.73;;;22.87;;
36799;SDS011;22752;51.960;5.886;2022-12-11T09:28:47;34.97;;;23.57;;
36799;SDS011;22752;51.960;5.886;2022-12-11T09:31:18;36.50;;;21.43;;
36799;SDS011;22752;51.960;5.886;2022-12-11T09:33:49;34.03;;;20.88;;
36799;SDS011;22752;51.960;5.886;2022-12-11T09:36:16;43.47;;;21.77;;
36799;SDS011;22752;51.960;5.886;2022-12-11T09:38:42;33.73;;;21.27;;
36799;SDS011;22752;51.960;5.886;2022-12-11T09:43:51;34.00;;;21.33;;
36799;SDS011;22752;51.960;5.886;2022-12-11T09:46:26;33.83;;;21.37;;
36799;SDS011;22752;51.960;5.886;2022-12-11T09:48:53;38.13;;;22.73;;
36799;SDS011;22752;51.960;5.886;2022-12-11T09:53:58;37.07;;;22.33;;
36799;SDS011;22752;51.960;5.886;2022-12-11T10:04:55;30.83;;;19.83;;
36799;SDS011;22752;51.960;5.886;2022-12-11T10:10:45;33.90;;;20.93;;
36799;SDS011;22752;51.960;5.886;2022-12-11T10:16:17;37.77;;;20.60;;
36799;SDS011;22752;51.960;5.886;2022-12-11T10:21:12;34.87;;;22.17;;
36799;SDS011;22752;51.960;5.886;2022-12-11T10:23:52;35.90;;;22.27;;
36799;SDS011;22752;51.960;5.886;2022-12-11T10:26:22;31.97;;;21.07;;
36799;SDS011;22752;51.960;5.886;2022-12-11T10:28:49;36.50;;;22.07;;
36799;SDS011;22752;51.960;5.886;2022-12-11T10:36:26;33.07;;;21.10;;
36799;SDS011;22752;51.960;5.886;2022-12-11T10:41:31;37.20;;;22.03;;
36799;SDS011;22752;51.960;5.886;2022-12-11T10:44:12;31.93;;;21.40;;
36799;SDS011;22752;51.960;5.886;2022-12-11T10:46:41;34.00;;;22.67;;
36799;SDS011;22752;51.960;5.886;2022-12-11T10:49:17;30.27;;;20.23;;
36799;SDS011;22752;51.960;5.886;2022-12-11T10:51:45;32.73;;;20.60;;
36799;SDS011;22752;51.960;5.886;2022-12-11T10:54:31;38.83;;;23.10;;
36799;SDS011;22752;51.960;5.886;2022-12-11T10:57:05;34.00;;;22.17;;
36799;SDS011;22752;51.960;5.886;2022-12-11T10:59:37;32.07;;;21.87;;
36799;SDS011;22752;51.960;5.886;2022-12-11T11:04:52;29.77;;;21.53;;
36799;SDS011;22752;51.960;5.886;2022-12-11T11:07:21;33.87;;;22.77;;
36799;SDS011;22752;51.960;5.886;2022-12-11T11:09:48;34.60;;;20.67;;
36799;SDS011;22752;51.960;5.886;2022-12-11T11:12:25;32.87;;;22.17;;
36799;SDS011;22752;51.960;5.886;2022-12-11T11:15:13;34.60;;;24.30;;
36799;SDS011;22752;51.960;5.886;2022-12-11T11:17:43;35.27;;;23.40;;
36799;SDS011;22752;51.960;5.886;2022-12-11T11:20:17;34.73;;;23.73;;
36799;SDS011;22752;51.960;5.886;2022-12-11T11:22:54;37.47;;;26.23;;
36799;SDS011;22752;51.960;5.886;2022-12-11T11:25:23;37.70;;;25.43;;
36799;SDS011;22752;51.960;5.886;2022-12-11T11:27:51;35.67;;;25.23;;
36799;SDS011;22752;51.960;5.886;2022-12-11T11:30:23;38.40;;;25.07;;
36799;SDS011;22752;51.960;5.886;2022-12-11T11:33:02;39.30;;;25.70;;
36799;SDS011;22752;51.960;5.886;2022-12-11T11:35:49;39.70;;;25.43;;
36799;SDS011;22752;51.960;5.886;2022-12-11T11:39:04;35.53;;;23.70;;
36799;SDS011;22752;51.960;5.886;2022-12-11T11:41:18;38.07;;;25.90;;
36799;SDS011;22752;51.960;5.886;2022-12-11T11:43:46;37.23;;;24.20;;
36799;SDS011;22752;51.960;5.886;2022-12-11T11:46:16;40.13;;;26.60;;
36799;SDS011;22752;51.960;5.886;2022-12-11T11:49:11;35.90;;;24.27;;
36799;SDS011;22752;51.960;5.886;2022-12-11T11:57:37;35.92;;;23.67;;
36799;SDS011;22752;51.960;5.886;2022-12-11T12:00:25;33.83;;;22.77;;
36799;SDS011;22752;51.960;5.886;2022-12-11T12:02:54;39.67;;;25.07;;
36799;SDS011;22752;51.960;5.886;2022-12-11T12:09:16;39.77;;;22.37;;
36799;SDS011;22752;51.960;5.886;2022-12-11T12:12:07;35.20;;;21.70;;
36799;SDS011;22752;51.960;5.886;2022-12-11T12:17:53;40.83;;;23.63;;
36799;SDS011;22752;51.960;5.886;2022-12-11T12:26:08;36.17;;;23.30;;
36799;SDS011;22752;51.960;5.886;2022-12-11T12:28:53;36.77;;;22.30;;
36799;SDS011;22752;51.960;5.886;2022-12-11T12:42:10;36.43;;;22.93;;
36799;SDS011;22752;51.960;5.886;2022-12-11T12:45:03;38.93;;;23.97;;
36799;SDS011;22752;51.960;5.886;2022-12-11T12:47:44;35.35;;;22.83;;
36799;SDS011;22752;51.960;5.886;2022-12-11T12:50:19;38.47;;;23.40;;
36799;SDS011;22752;51.960;5.886;2022-12-11T12:52:47;36.77;;;23.37;;
36799;SDS011;22752;51.960;5.886;2022-12-11T12:55:17;37.20;;;23.47;;
36799;SDS011;22752;51.960;5.886;2022-12-11T12:57:53;40.93;;;23.37;;
36799;SDS011;22752;51.960;5.886;2022-12-11T13:00:35;35.13;;;23.63;;
36799;SDS011;22752;51.960;5.886;2022-12-11T13:03:19;39.40;;;23.30;;
36799;SDS011;22752;51.960;5.886;2022-12-11T13:08:43;37.17;;;23.37;;
36799;SDS011;22752;51.960;5.886;2022-12-11T13:11:12;38.40;;;23.83;;
36799;SDS011;22752;51.960;5.886;2022-12-11T13:13:42;37.83;;;23.47;;
36799;SDS011;22752;51.960;5.886;2022-12-11T13:18:41;40.30;;;24.13;;
36799;SDS011;22752;51.960;5.886;2022-12-11T13:24:23;38.73;;;22.63;;
36799;SDS011;22752;51.960;5.886;2022-12-11T13:26:53;34.07;;;21.50;;
36799;SDS011;22752;51.960;5.886;2022-12-11T13:34:35;39.10;;;24.37;;
36799;SDS011;22752;51.960;5.886;2022-12-11T13:37:19;37.00;;;23.53;;
36799;SDS011;22752;51.960;5.886;2022-12-11T13:39:49;40.40;;;24.70;;
36799;SDS011;22752;51.960;5.886;2022-12-11T13:42:21;35.93;;;22.53;;
36799;SDS011;22752;51.960;5.886;2022-12-11T13:44:57;36.60;;;22.67;;
36799;SDS011;22752;51.960;5.886;2022-12-11T13:47:23;35.93;;;22.33;;
36799;SDS011;22752;51.960;5.886;2022-12-11T13:49:54;40.50;;;22.70;;
36799;SDS011;22752;51.960;5.886;2022-12-11T13:52:37;38.90;;;24.43;;
36799;SDS011;22752;51.960;5.886;2022-12-11T13:55:11;41.67;;;25.43;;
36799;SDS011;22752;51.960;5.886;2022-12-11T13:57:47;37.90;;;24.40;;
36799;SDS011;22752;51.960;5.886;2022-12-11T14:00:20;34.73;;;22.93;;
36799;SDS011;22752;51.960;5.886;2022-12-11T14:02:48;38.07;;;23.13;;
36799;SDS011;22752;51.960;5.886;2022-12-11T14:05:16;38.83;;;23.70;;
36799;SDS011;22752;51.960;5.886;2022-12-11T14:07:50;34.33;;;21.13;;
36799;SDS011;22752;51.960;5.886;2022-12-11T14:10:27;36.60;;;23.00;;
36799;SDS011;22752;51.960;5.886;2022-12-11T14:12:59;37.10;;;22.47;;
36799;SDS011;22752;51.960;5.886;2022-12-11T14:15:28;34.92;;;22.27;;
36799;SDS011;22752;51.960;5.886;2022-12-11T14:17:55;37.57;;;22.17;;
36799;SDS011;22752;51.960;5.886;2022-12-11T14:20:24;37.13;;;23.10;;
36799;SDS011;22752;51.960;5.886;2022-12-11T14:23:04;32.37;;;21.73;;
36799;SDS011;22752;51.960;5.886;2022-12-11T14:25:31;33.30;;;21.20;;
36799;SDS011;22752;51.960;5.886;2022-12-11T14:27:57;33.67;;;22.20;;
36799;SDS011;22752;51.960;5.886;2022-12-11T14:30:27;35.30;;;22.03;;
36799;SDS011;22752;51.960;5.886;2022-12-11T14:32:59;37.47;;;21.27;;
36799;SDS011;22752;51.960;5.886;2022-12-11T14:35:28;34.00;;;20.87;;
36799;SDS011;22752;51.960;5.886;2022-12-11T14:37:54;34.70;;;21.47;;
36799;SDS011;22752;51.960;5.886;2022-12-11T14:40:23;31.87;;;20.97;;
36799;SDS011;22752;51.960;5.886;2022-12-11T14:42:54;37.10;;;21.47;;
36799;SDS011;22752;51.960;5.886;2022-12-11T14:45:32;33.40;;;21.03;;
36799;SDS011;22752;51.960;5.886;2022-12-11T14:48:02;34.23;;;22.73;;
36799;SDS011;22752;51.960;5.886;2022-12-11T14:50:38;38.38;;;22.48;;
36799;SDS011;22752;51.960;5.886;2022-12-11T14:53:30;35.43;;;20.77;;
36799;SDS011;22752;51.960;5.886;2022-12-11T14:56:02;35.57;;;21.60;;
36799;SDS011;22752;51.960;5.886;2022-12-11T14:58:30;34.77;;;21.00;;
36799;SDS011;22752;51.960;5.886;2022-12-11T15:01:02;36.27;;;22.30;;
36799;SDS011;22752;51.960;5.886;2022-12-11T15:03:31;39.13;;;22.10;;
36799;SDS011;22752;51.960;5.886;2022-12-11T15:08:49;33.20;;;20.90;;
36799;SDS011;22752;51.960;5.886;2022-12-11T15:11:16;36.33;;;21.37;;
36799;SDS011;22752;51.960;5.886;2022-12-11T15:13:55;35.60;;;21.33;;
36799;SDS011;22752;51.960;5.886;2022-12-11T15:16:24;33.23;;;20.27;;
36799;SDS011;22752;51.960;5.886;2022-12-11T15:18:52;34.00;;;20.83;;
36799;SDS011;22752;51.960;5.886;2022-12-11T15:21:26;34.50;;;20.13;;
36799;SDS011;22752;51.960;5.886;2022-12-11T15:23:58;38.97;;;22.67;;
36799;SDS011;22752;51.960;5.886;2022-12-11T15:29:00;35.83;;;22.17;;
36799;SDS011;22752;51.960;5.886;2022-12-11T15:31:29;37.40;;;21.80;;
36799;SDS011;22752;51.960;5.886;2022-12-11T15:33:57;36.23;;;20.70;;
36799;SDS011;22752;51.960;5.886;2022-12-11T15:36:24;34.60;;;20.43;;
36799;SDS011;22752;51.960;5.886;2022-12-11T15:38:55;39.03;;;20.30;;
36799;SDS011;22752;51.960;5.886;2022-12-11T15:41:21;33.53;;;19.73;;
36799;SDS011;22752;51.960;5.886;2022-12-11T15:43:49;31.50;;;18.67;;
36799;SDS011;22752;51.960;5.886;2022-12-11T15:46:17;34.50;;;21.30;;
36799;SDS011;22752;51.960;5.886;2022-12-11T15:48:42;33.17;;;20.67;;
36799;SDS011;22752;51.960;5.886;2022-12-11T15:51:08;34.80;;;21.83;;
36799;SDS011;22752;51.960;5.886;2022-12-11T15:53:34;36.53;;;22.37;;
36799;SDS011;22752;51.960;5.886;2022-12-11T15:56:00;34.00;;;21.67;;
36799;SDS011;22752;51.960;5.886;2022-12-11T15:58:26;34.17;;;21.20;;
36799;SDS011;22752;51.960;5.886;2022-12-11T16:00:53;35.17;;;21.47;;
36799;SDS011;22752;51.960;5.886;2022-12-11T16:03:19;36.13;;;22.53;;
36799;SDS011;22752;51.960;5.886;2022-12-11T16:05:47;37.33;;;22.83;;
36799;SDS011;22752;51.960;5.886;2022-12-11T16:08:15;39.57;;;23.87;;
36799;SDS011;22752;51.960;5.886;2022-12-11T16:10:45;32.90;;;21.77;;
36799;SDS011;22752;51.960;5.886;2022-12-11T16:13:12;37.60;;;21.83;;
36799;SDS011;22752;51.960;5.886;2022-12-11T16:15:39;36.00;;;22.00;;
36799;SDS011;22752;51.960;5.886;2022-12-11T16:18:17;35.27;;;22.87;;